createdAt,value
2018-10-17T00:00:14.176Z,60.26
2018-10-17T00:02:39.595Z,60.85
2018-10-17T00:05:05.082Z,60.59
2018-10-17T00:07:30.494Z,60.45
2018-10-17T00:09:55.957Z,60.19
2018-10-17T00:12:21.428Z,60.97
2018-10-17T00:15:05.865Z,61.01
2018-10-17T00:17:31.291Z,62.03
2018-10-17T00:19:56.711Z,61.87
2018-10-17T00:22:22.161Z,62.34
2018-10-17T00:24:47.595Z,61.63
2018-10-17T00:27:13.036Z,60.93
2018-10-17T00:29:49.979Z,60.85
2018-10-17T00:34:46.633Z,60.95
2018-10-17T00:37:12.134Z,61.18
2018-10-17T00:39:37.609Z,61.01
2018-10-17T00:42:03.075Z,61.31
2018-10-17T00:44:28.493Z,62.23
2018-10-17T00:46:53.963Z,62.98
2018-10-17T00:49:19.396Z,61.84
2018-10-17T00:51:44.832Z,61.73
2018-10-17T00:54:10.280Z,61.45
2018-10-17T00:56:35.700Z,61.13
2018-10-17T01:01:59.852Z,62.73
2018-10-17T01:04:25.277Z,62.79
2018-10-17T01:09:27.416Z,63.35
2018-10-17T01:11:53.117Z,62.43
2018-10-17T01:14:18.535Z,62.40
2018-10-17T01:19:21.487Z,63.13
2018-10-17T01:21:46.932Z,63.15
2018-10-17T01:24:14.814Z,63.37
2018-10-17T01:26:40.226Z,63.37
2018-10-17T01:34:23.065Z,63.87
2018-10-17T01:36:48.480Z,63.25
2018-10-17T01:44:27.572Z,63.42
2018-10-17T01:46:53.312Z,63.24
2018-10-17T01:49:21.506Z,63.53
2018-10-17T01:51:46.942Z,63.36
2018-10-17T01:56:49.237Z,64.00
2018-10-17T02:01:51.616Z,62.96
2018-10-17T02:04:29.006Z,63.02
2018-10-17T02:06:49.217Z,63.17
2018-10-17T02:09:14.633Z,63.44
2018-10-17T02:11:40.318Z,63.24
2018-10-17T02:14:05.949Z,63.01
2018-10-17T02:16:31.419Z,63.32
2018-10-17T02:19:11.756Z,62.94
2018-10-17T02:24:06.581Z,63.35
2018-10-17T02:26:32.030Z,63.23
2018-10-17T02:31:34.410Z,62.71
2018-10-17T02:33:59.918Z,63.24
2018-10-17T02:36:25.353Z,63.14
2018-10-17T02:38:50.776Z,62.65
2018-10-17T02:41:16.274Z,62.75
2018-10-17T02:43:41.644Z,62.64
2018-10-17T02:46:07.604Z,63.18
2018-10-17T02:48:33.031Z,62.75
2018-10-17T02:50:58.468Z,62.95
2018-10-17T02:53:23.933Z,62.26
2018-10-17T02:55:49.382Z,62.35
2018-10-17T02:58:14.897Z,62.20
2018-10-17T03:00:40.326Z,62.12
2018-10-17T03:03:36.250Z,62.67
2018-10-17T03:05:56.836Z,63.01
2018-10-17T03:08:22.279Z,63.51
2018-10-17T03:10:50.510Z,63.17
2018-10-17T03:13:16.024Z,62.61
2018-10-17T03:15:41.471Z,63.19
2018-10-17T03:20:56.861Z,62.90
2018-10-17T03:23:14.472Z,62.94
2018-10-17T03:25:39.901Z,62.39
2018-10-17T03:28:05.645Z,62.80
2018-10-17T03:30:30.997Z,62.67
2018-10-17T03:32:56.479Z,64.81
2018-10-17T03:35:21.899Z,64.32
2018-10-17T03:37:47.310Z,62.86
2018-10-17T03:40:12.787Z,64.57
2018-10-17T03:42:38.348Z,63.09
2018-10-17T03:47:39.896Z,62.90
2018-10-17T03:52:50.306Z,63.23
2018-10-17T03:55:08.756Z,63.42
2018-10-17T03:57:34.099Z,64.68
2018-10-17T03:59:59.530Z,64.88
2018-10-17T04:02:44.009Z,63.27
2018-10-17T04:05:09.719Z,63.38
2018-10-17T04:07:35.225Z,64.33
2018-10-17T04:10:00.670Z,65.32
2018-10-17T04:15:02.337Z,63.97
2018-10-17T04:17:46.816Z,63.35
2018-10-17T04:20:12.246Z,62.75
2018-10-17T04:25:19.583Z,63.73
2018-10-17T04:27:42.841Z,63.69
2018-10-17T04:30:27.886Z,63.91
2018-10-17T04:32:53.317Z,64.42
2018-10-17T04:35:18.797Z,64.18
2018-10-17T04:40:24.326Z,64.16
2018-10-17T04:42:49.922Z,65.90
2018-10-17T04:45:27.190Z,66.87
2018-10-17T04:47:46.554Z,66.20
2018-10-17T04:50:12.550Z,64.60
2018-10-17T04:52:38.090Z,64.07
2018-10-17T04:55:03.563Z,64.36
2018-10-17T04:57:29.000Z,64.12
2018-10-17T04:59:54.537Z,63.53
2018-10-17T05:02:20.027Z,63.69
2018-10-17T05:04:57.156Z,63.28
2018-10-17T05:07:16.507Z,64.94
2018-10-17T05:09:42.015Z,64.14
2018-10-17T05:12:07.527Z,63.89
2018-10-17T05:17:10.457Z,63.67
2018-10-17T05:19:35.847Z,63.57
2018-10-17T05:22:01.326Z,63.42
2018-10-17T05:24:26.779Z,63.71
2018-10-17T05:26:52.217Z,63.76
2018-10-17T05:29:17.680Z,64.17
2018-10-17T05:31:43.110Z,64.19
2018-10-17T05:34:08.573Z,64.30
2018-10-17T05:36:34.031Z,64.46
2018-10-17T05:38:59.509Z,64.90
2018-10-17T05:41:24.951Z,64.88
2018-10-17T05:43:50.412Z,64.74
2018-10-17T05:46:15.880Z,64.78
2018-10-17T05:48:41.304Z,65.08
2018-10-17T05:51:06.842Z,64.81
2018-10-17T05:53:32.285Z,65.46
2018-10-17T05:55:57.722Z,64.68
2018-10-17T06:03:56.482Z,64.67
2018-10-17T06:06:21.937Z,64.82
2018-10-17T06:08:58.818Z,65.25
2018-10-17T06:11:32.014Z,65.11
2018-10-17T06:13:50.211Z,65.18
2018-10-17T06:18:51.878Z,64.81
2018-10-17T06:21:17.254Z,64.66
2018-10-17T06:23:42.738Z,64.77
2018-10-17T06:26:08.176Z,64.75
2018-10-17T06:28:33.596Z,64.65
2018-10-17T06:31:13.699Z,64.24
2018-10-17T06:33:30.104Z,63.83
2018-10-17T06:35:55.577Z,64.57
2018-10-17T06:38:20.999Z,64.75
2018-10-17T06:40:46.418Z,64.55
2018-10-17T06:45:48.743Z,64.46
2018-10-17T06:48:14.238Z,63.72
2018-10-17T06:50:39.675Z,64.32
2018-10-17T06:53:05.263Z,63.95
2018-10-17T06:55:30.616Z,63.43
2018-10-17T06:57:56.043Z,63.71
2018-10-17T07:00:35.076Z,63.32
2018-10-17T07:02:52.785Z,63.40
2018-10-17T07:05:18.426Z,64.56
2018-10-17T07:10:20.340Z,63.35
2018-10-17T07:12:45.847Z,64.00
2018-10-17T07:15:11.324Z,64.34
2018-10-17T07:17:48.854Z,64.34
2018-10-17T07:20:09.217Z,64.31
2018-10-17T07:25:11.306Z,64.57
2018-10-17T07:27:55.667Z,64.35
2018-10-17T07:30:21.137Z,64.65
2018-10-17T07:32:46.623Z,64.47
2018-10-17T07:37:48.232Z,64.78
2018-10-17T07:40:25.212Z,65.01
2018-10-17T07:42:44.725Z,64.80
2018-10-17T07:45:10.168Z,64.79
2018-10-17T07:47:35.649Z,65.21
2018-10-17T07:50:01.070Z,65.51
2018-10-17T07:52:26.494Z,65.66
2018-10-17T07:54:51.969Z,65.10
2018-10-17T07:57:17.428Z,65.86
2018-10-17T07:59:42.955Z,66.16
2018-10-17T08:02:08.701Z,65.24
2018-10-17T15:26:07.100Z,38.61
2018-10-17T15:31:14.817Z,39.48
2018-10-17T15:33:40.230Z,39.57
2018-10-17T15:36:05.857Z,40.80
2018-10-17T15:38:31.130Z,40.73
2018-10-17T15:40:56.556Z,40.67
2018-10-17T15:43:22.052Z,41.01
2018-10-17T15:45:47.442Z,40.87
2018-10-17T15:48:12.993Z,41.58
2018-10-17T15:50:38.391Z,41.82
2018-10-17T15:53:03.930Z,42.13
2018-10-17T15:55:29.308Z,43.03
2018-10-17T16:00:43.168Z,43.54
2018-10-17T16:03:08.648Z,43.56
2018-10-17T16:10:54.904Z,44.04
2018-10-17T16:13:32.108Z,45.36
2018-10-17T16:15:51.248Z,45.44
2018-10-17T16:18:28.296Z,46.07
2018-10-17T16:20:47.694Z,45.86
2018-10-17T16:25:49.822Z,45.77
2018-10-17T16:28:15.297Z,45.96
2018-10-17T16:30:40.895Z,46.32
2018-10-17T16:33:06.220Z,46.82
2018-10-17T16:35:31.643Z,46.53
2018-10-17T16:37:57.122Z,46.69
2018-10-17T16:40:22.598Z,46.42
2018-10-17T16:42:48.031Z,46.79
2018-10-17T16:45:13.475Z,47.25
2018-10-17T16:47:39.038Z,47.47
2018-10-17T16:50:04.474Z,48.03
2018-10-17T16:52:29.812Z,47.99
2018-10-17T16:55:06.954Z,48.78
2018-10-17T16:57:46.795Z,48.78
2018-10-17T17:00:03.498Z,48.71
2018-10-17T17:02:28.949Z,48.95
2018-10-17T17:05:09.090Z,48.95
2018-10-17T17:07:36.922Z,48.99
2018-10-17T17:09:57.208Z,49.48
2018-10-17T17:12:22.660Z,49.53
2018-10-17T17:14:48.112Z,49.99
2018-10-17T17:17:13.662Z,49.93
2018-10-17T17:19:50.666Z,50.64
2018-10-17T17:22:10.074Z,51.26
2018-10-17T17:24:35.535Z,51.06
2018-10-17T17:27:00.978Z,50.81
2018-10-17T17:29:45.511Z,50.48
2018-10-17T17:32:25.185Z,51.13
2018-10-17T17:34:53.395Z,51.56
2018-10-17T17:37:12.975Z,51.89
2018-10-17T17:39:53.075Z,51.51
2018-10-17T17:42:09.494Z,51.32
2018-10-17T17:44:34.910Z,51.69
2018-10-17T17:47:00.322Z,51.63
2018-10-17T17:49:25.802Z,51.52
2018-10-17T17:52:02.843Z,52.31
2018-10-17T17:57:10.461Z,52.47
2018-10-17T17:59:35.902Z,51.89
2018-10-17T18:04:37.692Z,52.41
2018-10-17T18:09:47.225Z,53.13
2018-10-17T18:14:44.829Z,52.92
2018-10-17T18:17:10.312Z,52.96
2018-10-17T18:19:35.761Z,53.76
2018-10-17T18:22:15.336Z,53.50
2018-10-17T18:24:32.411Z,54.43
2018-10-17T18:27:16.880Z,54.52
2018-10-17T18:29:42.359Z,55.05
2018-10-17T18:32:07.856Z,54.79
2018-10-17T18:34:33.312Z,54.15
2018-10-17T18:37:32.346Z,53.79
2018-10-17T18:39:48.992Z,54.06
2018-10-17T18:42:14.422Z,54.88
2018-10-17T18:44:39.890Z,54.50
2018-10-17T18:47:05.398Z,55.27
2018-10-17T18:49:30.840Z,57.05
2018-10-17T18:51:56.272Z,56.47
2018-10-17T18:54:21.774Z,55.03
2018-10-17T18:56:47.238Z,54.58
2018-10-17T18:59:12.656Z,56.06
2018-10-17T19:01:38.142Z,57.16
2018-10-17T19:04:14.982Z,56.24
2018-10-17T19:06:45.926Z,56.08
2018-10-17T19:09:28.222Z,56.01
2018-10-17T19:11:53.700Z,56.25
2018-10-17T19:14:19.153Z,56.18
2018-10-17T19:16:44.681Z,55.95
2018-10-17T19:21:46.120Z,56.41
2018-10-17T19:24:11.577Z,56.38
2018-10-17T19:26:37.019Z,56.91
2018-10-17T19:29:02.495Z,57.30
2018-10-17T19:31:27.942Z,57.11
2018-10-17T19:33:53.446Z,56.81
2018-10-17T19:36:19.035Z,56.26
2018-10-17T19:38:44.492Z,57.03
2018-10-17T19:41:09.959Z,56.65
2018-10-17T19:43:35.479Z,58.68
2018-10-17T19:46:14.802Z,59.02
2018-10-17T19:51:12.336Z,56.81
2018-10-17T19:53:37.757Z,57.24
2018-10-17T19:56:03.339Z,57.24
2018-10-17T19:58:40.456Z,57.14
2018-10-17T20:01:05.934Z,57.23
2018-10-17T20:03:31.440Z,56.81
2018-10-17T20:05:56.929Z,57.28
2018-10-17T20:08:22.380Z,57.29
2018-10-17T20:10:47.797Z,57.01
2018-10-17T20:13:13.213Z,57.62
2018-10-17T20:15:38.733Z,57.19
2018-10-17T20:18:34.676Z,57.24
2018-10-17T20:20:54.404Z,59.08
2018-10-17T20:23:50.358Z,58.16
2018-10-17T20:26:10.311Z,58.82
2018-10-17T20:28:35.733Z,58.62
2018-10-17T20:31:12.700Z,58.21
2018-10-17T20:33:32.825Z,58.69
2018-10-17T20:35:58.429Z,60.32
2018-10-17T20:38:23.862Z,60.07
2018-10-17T20:40:49.289Z,61.96
2018-10-17T20:43:14.757Z,61.68
2018-10-17T20:45:40.183Z,60.64
2018-10-17T20:48:17.319Z,62.75
2018-10-17T20:53:12.895Z,60.12
2018-10-17T20:58:15.238Z,59.63
2018-10-17T21:00:40.604Z,59.70
2018-10-17T21:03:06.098Z,59.57
2018-10-17T21:08:07.765Z,61.89
2018-10-17T21:10:33.105Z,62.11
2018-10-17T21:12:58.533Z,61.00
2018-10-17T21:15:23.988Z,59.89
2018-10-17T21:17:49.532Z,59.57
2018-10-17T21:20:14.979Z,60.42
2018-10-17T21:22:40.372Z,59.27
2018-10-17T21:25:05.793Z,59.61
2018-10-17T21:27:42.690Z,60.25
2018-10-17T21:30:14.025Z,59.69
2018-10-17T21:32:34.250Z,60.57
2018-10-17T21:34:59.752Z,60.28
2018-10-17T21:40:02.839Z,59.28
2018-10-17T21:45:08.177Z,59.92
2018-10-17T21:53:00.153Z,59.97
2018-10-17T21:55:19.572Z,59.88
2018-10-17T21:57:45.057Z,60.71
2018-10-17T22:02:46.931Z,60.69
2018-10-17T22:05:31.319Z,60.49
2018-10-17T22:08:10.992Z,60.25
2018-10-17T22:10:39.703Z,59.71
2018-10-17T22:15:31.109Z,59.68
2018-10-17T22:17:56.520Z,60.59
2018-10-17T22:20:21.970Z,59.79
2018-10-17T22:22:47.444Z,59.81
2018-10-17T22:25:12.967Z,60.50
2018-10-17T22:27:54.507Z,59.84
2018-10-17T22:30:28.957Z,60.68
2018-10-17T22:32:54.402Z,60.97
2018-10-17T22:35:19.878Z,60.29
2018-10-17T22:37:45.322Z,60.53
2018-10-17T22:40:10.793Z,58.70
2018-10-17T22:42:36.273Z,58.44
2018-10-17T22:45:01.706Z,59.07
2018-10-17T22:47:27.102Z,59.06
2018-10-17T22:49:52.554Z,59.53
2018-10-17T22:52:38.181Z,60.61
2018-10-17T22:57:32.742Z,63.11
2018-10-17T22:59:58.196Z,62.66
2018-10-17T23:05:01.182Z,61.67
2018-10-17T23:07:26.648Z,60.63
2018-10-17T23:09:52.137Z,60.90
2018-10-17T23:12:17.546Z,61.75
2018-10-17T23:14:54.496Z,62.01
2018-10-17T23:17:14.344Z,61.54
2018-10-17T23:19:39.773Z,62.08
2018-10-17T23:24:36.514Z,63.69
2018-10-17T23:27:01.949Z,63.74
2018-10-17T23:29:27.710Z,64.17
2018-10-17T23:31:53.410Z,62.96
2018-10-17T23:34:18.761Z,63.52
2018-10-17T23:36:44.215Z,62.70
2018-10-17T23:42:02.866Z,62.97
2018-10-17T23:44:23.225Z,63.27
2018-10-17T23:46:48.655Z,62.42
2018-10-17T23:49:14.151Z,63.35
2018-10-17T23:51:39.568Z,62.46
2018-10-17T23:54:05.060Z,62.38
2018-10-17T23:59:08.051Z,62.66
